sensor_id;sensor_type;location;lat;lon;timestamp;P1;durP1;ratioP1;P2;durP2;ratioP2
11418;SDS011;32800;44.876;13.880;2023-03-05T00:00:42;6.07;;;4.83;;
11418;SDS011;32800;44.876;13.880;2023-03-05T00:03:08;7.23;;;5.53;;
11418;SDS011;32800;44.876;13.880;2023-03-05T00:05:33;6.73;;;5.07;;
11418;SDS011;32800;44.876;13.880;2023-03-05T00:07:59;7.40;;;5.00;;
11418;SDS011;32800;44.876;13.880;2023-03-05T00:10:25;7.17;;;5.30;;
11418;SDS011;32800;44.876;13.880;2023-03-05T00:12:50;7.07;;;5.03;;
11418;SDS011;32800;44.876;13.880;2023-03-05T00:15:16;7.27;;;5.13;;
11418;SDS011;32800;44.876;13.880;2023-03-05T00:17:41;6.07;;;4.90;;
11418;SDS011;32800;44.876;13.880;2023-03-05T00:20:07;6.57;;;5.20;;
11418;SDS011;32800;44.876;13.880;2023-03-05T00:22:33;6.30;;;4.73;;
11418;SDS011;32800;44.876;13.880;2023-03-05T00:24:59;6.27;;;5.00;;
11418;SDS011;32800;44.876;13.880;2023-03-05T00:27:25;6.03;;;5.00;;
11418;SDS011;32800;44.876;13.880;2023-03-05T00:29:51;6.03;;;4.87;;
11418;SDS011;32800;44.876;13.880;2023-03-05T00:32:16;6.03;;;5.17;;
11418;SDS011;32800;44.876;13.880;2023-03-05T00:34:42;7.10;;;4.63;;
11418;SDS011;32800;44.876;13.880;2023-03-05T00:37:07;6.87;;;4.97;;
11418;SDS011;32800;44.876;13.880;2023-03-05T00:39:33;6.57;;;4.70;;
11418;SDS011;32800;44.876;13.880;2023-03-05T00:41:58;6.03;;;4.90;;
11418;SDS011;32800;44.876;13.880;2023-03-05T00:44:24;5.77;;;5.07;;
11418;SDS011;32800;44.876;13.880;2023-03-05T00:46:49;6.27;;;4.80;;
11418;SDS011;32800;44.876;13.880;2023-03-05T00:49:15;6.13;;;4.73;;
11418;SDS011;32800;44.876;13.880;2023-03-05T00:51:41;5.40;;;4.40;;
11418;SDS011;32800;44.876;13.880;2023-03-05T00:54:06;5.40;;;4.70;;
11418;SDS011;32800;44.876;13.880;2023-03-05T00:56:32;6.23;;;5.10;;
11418;SDS011;32800;44.876;13.880;2023-03-05T00:58:58;5.53;;;4.87;;
11418;SDS011;32800;44.876;13.880;2023-03-05T01:01:23;4.87;;;4.40;;
11418;SDS011;32800;44.876;13.880;2023-03-05T01:03:49;6.87;;;4.60;;
11418;SDS011;32800;44.876;13.880;2023-03-05T01:06:15;6.30;;;4.97;;
11418;SDS011;32800;44.876;13.880;2023-03-05T01:08:41;6.93;;;4.57;;
11418;SDS011;32800;44.876;13.880;2023-03-05T01:11:08;6.60;;;4.90;;
11418;SDS011;32800;44.876;13.880;2023-03-05T01:13:34;5.73;;;4.80;;
11418;SDS011;32800;44.876;13.880;2023-03-05T01:16:00;6.33;;;4.83;;
11418;SDS011;32800;44.876;13.880;2023-03-05T01:18:25;5.33;;;4.43;;
11418;SDS011;32800;44.876;13.880;2023-03-05T01:20:51;5.30;;;4.80;;
11418;SDS011;32800;44.876;13.880;2023-03-05T01:23:17;6.20;;;4.97;;
11418;SDS011;32800;44.876;13.880;2023-03-05T01:25:42;7.17;;;4.57;;
11418;SDS011;32800;44.876;13.880;2023-03-05T01:28:08;6.03;;;4.57;;
11418;SDS011;32800;44.876;13.880;2023-03-05T01:30:34;5.07;;;4.53;;
11418;SDS011;32800;44.876;13.880;2023-03-05T01:32:59;5.73;;;5.13;;
11418;SDS011;32800;44.876;13.880;2023-03-05T01:35:26;6.13;;;5.10;;
11418;SDS011;32800;44.876;13.880;2023-03-05T01:37:52;6.37;;;4.60;;
11418;SDS011;32800;44.876;13.880;2023-03-05T01:40:23;5.97;;;4.90;;
11418;SDS011;32800;44.876;13.880;2023-03-05T01:42:55;4.93;;;4.43;;
11418;SDS011;32800;44.876;13.880;2023-03-05T01:45:22;5.50;;;4.70;;
11418;SDS011;32800;44.876;13.880;2023-03-05T01:47:48;6.33;;;4.87;;
11418;SDS011;32800;44.876;13.880;2023-03-05T01:50:18;21.83;;;5.80;;
11418;SDS011;32800;44.876;13.880;2023-03-05T01:52:47;11.40;;;5.20;;
11418;SDS011;32800;44.876;13.880;2023-03-05T01:55:24;7.27;;;4.57;;
11418;SDS011;32800;44.876;13.880;2023-03-05T01:57:54;8.90;;;5.23;;
11418;SDS011;32800;44.876;13.880;2023-03-05T02:00:24;5.83;;;4.73;;
11418;SDS011;32800;44.876;13.880;2023-03-05T02:02:53;5.33;;;4.60;;
11418;SDS011;32800;44.876;13.880;2023-03-05T02:05:31;8.17;;;5.00;;
11418;SDS011;32800;44.876;13.880;2023-03-05T02:08:00;6.93;;;4.43;;
11418;SDS011;32800;44.876;13.880;2023-03-05T02:10:31;7.87;;;4.60;;
11418;SDS011;32800;44.876;13.880;2023-03-05T02:13:13;5.93;;;4.60;;
11418;SDS011;32800;44.876;13.880;2023-03-05T02:15:44;6.77;;;5.03;;
11418;SDS011;32800;44.876;13.880;2023-03-05T02:18:11;8.17;;;4.73;;
11418;SDS011;32800;44.876;13.880;2023-03-05T02:20:44;6.50;;;4.23;;
11418;SDS011;32800;44.876;13.880;2023-03-05T02:23:16;7.37;;;4.90;;
11418;SDS011;32800;44.876;13.880;2023-03-05T02:25:42;6.50;;;4.90;;
11418;SDS011;32800;44.876;13.880;2023-03-05T02:28:11;5.30;;;4.27;;
11418;SDS011;32800;44.876;13.880;2023-03-05T02:30:40;7.83;;;4.87;;
11418;SDS011;32800;44.876;13.880;2023-03-05T02:33:06;5.77;;;4.40;;
11418;SDS011;32800;44.876;13.880;2023-03-05T02:35:31;5.17;;;4.20;;
11418;SDS011;32800;44.876;13.880;2023-03-05T02:37:57;5.50;;;4.47;;
11418;SDS011;32800;44.876;13.880;2023-03-05T02:40:23;7.13;;;4.70;;
11418;SDS011;32800;44.876;13.880;2023-03-05T02:42:48;6.30;;;4.43;;
11418;SDS011;32800;44.876;13.880;2023-03-05T02:45:14;7.53;;;4.50;;
11418;SDS011;32800;44.876;13.880;2023-03-05T02:47:40;5.07;;;4.40;;
11418;SDS011;32800;44.876;13.880;2023-03-05T02:50:06;8.27;;;4.27;;
11418;SDS011;32800;44.876;13.880;2023-03-05T02:52:32;5.23;;;4.47;;
11418;SDS011;32800;44.876;13.880;2023-03-05T02:54:58;5.00;;;4.50;;
11418;SDS011;32800;44.876;13.880;2023-03-05T02:57:23;7.03;;;4.20;;
11418;SDS011;32800;44.876;13.880;2023-03-05T02:59:49;6.23;;;4.30;;
11418;SDS011;32800;44.876;13.880;2023-03-05T03:02:15;5.50;;;4.60;;
11418;SDS011;32800;44.876;13.880;2023-03-05T03:04:41;6.13;;;4.57;;
11418;SDS011;32800;44.876;13.880;2023-03-05T03:07:08;5.20;;;3.97;;
11418;SDS011;32800;44.876;13.880;2023-03-05T03:09:34;7.63;;;4.53;;
11418;SDS011;32800;44.876;13.880;2023-03-05T03:12:00;7.83;;;4.50;;
11418;SDS011;32800;44.876;13.880;2023-03-05T03:14:26;5.70;;;4.10;;
11418;SDS011;32800;44.876;13.880;2023-03-05T03:16:51;5.40;;;4.20;;
11418;SDS011;32800;44.876;13.880;2023-03-05T03:19:17;5.13;;;4.17;;
11418;SDS011;32800;44.876;13.880;2023-03-05T03:21:42;4.70;;;4.20;;
11418;SDS011;32800;44.876;13.880;2023-03-05T03:24:08;5.87;;;4.20;;
11418;SDS011;32800;44.876;13.880;2023-03-05T03:26:33;5.10;;;4.07;;
11418;SDS011;32800;44.876;13.880;2023-03-05T03:28:59;4.63;;;4.10;;
11418;SDS011;32800;44.876;13.880;2023-03-05T03:31:24;6.63;;;4.30;;
11418;SDS011;32800;44.876;13.880;2023-03-05T03:33:50;5.47;;;4.27;;
11418;SDS011;32800;44.876;13.880;2023-03-05T03:36:16;4.47;;;4.07;;
11418;SDS011;32800;44.876;13.880;2023-03-05T03:38:41;4.40;;;4.00;;
11418;SDS011;32800;44.876;13.880;2023-03-05T03:41:07;6.10;;;4.37;;
11418;SDS011;32800;44.876;13.880;2023-03-05T03:43:34;5.13;;;4.13;;
11418;SDS011;32800;44.876;13.880;2023-03-05T03:46:02;6.03;;;4.43;;
11418;SDS011;32800;44.876;13.880;2023-03-05T03:48:29;5.07;;;4.13;;
11418;SDS011;32800;44.876;13.880;2023-03-05T03:50:54;6.63;;;4.10;;
11418;SDS011;32800;44.876;13.880;2023-03-05T03:53:20;4.80;;;4.03;;
11418;SDS011;32800;44.876;13.880;2023-03-05T03:55:46;5.60;;;4.00;;
11418;SDS011;32800;44.876;13.880;2023-03-05T03:58:11;6.87;;;4.17;;
11418;SDS011;32800;44.876;13.880;2023-03-05T04:00:38;5.63;;;4.10;;
11418;SDS011;32800;44.876;13.880;2023-03-05T04:03:04;4.97;;;4.30;;
11418;SDS011;32800;44.876;13.880;2023-03-05T04:05:29;6.37;;;3.97;;
11418;SDS011;32800;44.876;13.880;2023-03-05T04:07:55;4.93;;;4.20;;
11418;SDS011;32800;44.876;13.880;2023-03-05T04:10:23;5.27;;;4.17;;
11418;SDS011;32800;44.876;13.880;2023-03-05T04:12:48;4.30;;;3.90;;
11418;SDS011;32800;44.876;13.880;2023-03-05T04:15:14;4.10;;;3.70;;
11418;SDS011;32800;44.876;13.880;2023-03-05T04:17:40;4.23;;;3.73;;
11418;SDS011;32800;44.876;13.880;2023-03-05T04:20:05;4.73;;;3.87;;
11418;SDS011;32800;44.876;13.880;2023-03-05T04:22:34;4.50;;;4.00;;
11418;SDS011;32800;44.876;13.880;2023-03-05T04:25:00;4.50;;;4.03;;
11418;SDS011;32800;44.876;13.880;2023-03-05T04:27:30;5.17;;;4.10;;
11418;SDS011;32800;44.876;13.880;2023-03-05T04:29:57;4.70;;;3.70;;
11418;SDS011;32800;44.876;13.880;2023-03-05T04:32:22;4.93;;;3.90;;
11418;SDS011;32800;44.876;13.880;2023-03-05T04:34:53;4.13;;;3.70;;
11418;SDS011;32800;44.876;13.880;2023-03-05T04:37:22;4.53;;;4.00;;
11418;SDS011;32800;44.876;13.880;2023-03-05T04:39:49;4.33;;;3.90;;
11418;SDS011;32800;44.876;13.880;2023-03-05T04:42:15;3.80;;;3.37;;
11418;SDS011;32800;44.876;13.880;2023-03-05T04:44:41;5.07;;;3.93;;
11418;SDS011;32800;44.876;13.880;2023-03-05T04:47:07;5.43;;;3.50;;
11418;SDS011;32800;44.876;13.880;2023-03-05T04:49:32;4.23;;;3.50;;
11418;SDS011;32800;44.876;13.880;2023-03-05T04:51:58;4.27;;;3.47;;
11418;SDS011;32800;44.876;13.880;2023-03-05T04:54:23;5.13;;;3.70;;
11418;SDS011;32800;44.876;13.880;2023-03-05T04:56:49;4.10;;;3.70;;
11418;SDS011;32800;44.876;13.880;2023-03-05T04:59:15;4.93;;;3.80;;
11418;SDS011;32800;44.876;13.880;2023-03-05T05:01:41;4.07;;;3.60;;
11418;SDS011;32800;44.876;13.880;2023-03-05T05:04:07;4.43;;;3.77;;
11418;SDS011;32800;44.876;13.880;2023-03-05T05:06:33;4.47;;;3.50;;
11418;SDS011;32800;44.876;13.880;2023-03-05T05:08:58;4.20;;;3.57;;
11418;SDS011;32800;44.876;13.880;2023-03-05T05:11:24;5.47;;;3.47;;
11418;SDS011;32800;44.876;13.880;2023-03-05T05:13:49;4.80;;;3.50;;
11418;SDS011;32800;44.876;13.880;2023-03-05T05:16:15;4.83;;;3.60;;
11418;SDS011;32800;44.876;13.880;2023-03-05T05:18:41;4.50;;;3.90;;
11418;SDS011;32800;44.876;13.880;2023-03-05T05:21:07;4.73;;;3.97;;
11418;SDS011;32800;44.876;13.880;2023-03-05T05:23:34;4.80;;;3.87;;
11418;SDS011;32800;44.876;13.880;2023-03-05T05:26:00;4.20;;;3.70;;
11418;SDS011;32800;44.876;13.880;2023-03-05T05:28:27;3.87;;;3.23;;
11418;SDS011;32800;44.876;13.880;2023-03-05T05:30:53;3.93;;;3.37;;
11418;SDS011;32800;44.876;13.880;2023-03-05T05:33:19;3.50;;;3.20;;
11418;SDS011;32800;44.876;13.880;2023-03-05T05:35:45;3.93;;;3.53;;
11418;SDS011;32800;44.876;13.880;2023-03-05T05:38:10;3.50;;;3.20;;
11418;SDS011;32800;44.876;13.880;2023-03-05T05:40:36;3.70;;;3.40;;
11418;SDS011;32800;44.876;13.880;2023-03-05T05:43:02;4.07;;;3.57;;
11418;SDS011;32800;44.876;13.880;2023-03-05T05:45:38;4.70;;;3.50;;
11418;SDS011;32800;44.876;13.880;2023-03-05T05:48:04;4.17;;;3.37;;
11418;SDS011;32800;44.876;13.880;2023-03-05T05:50:30;3.50;;;3.20;;
11418;SDS011;32800;44.876;13.880;2023-03-05T05:52:55;3.90;;;3.50;;
11418;SDS011;32800;44.876;13.880;2023-03-05T05:55:21;3.97;;;3.20;;
11418;SDS011;32800;44.876;13.880;2023-03-05T05:57:46;3.90;;;3.50;;
11418;SDS011;32800;44.876;13.880;2023-03-05T06:00:12;3.60;;;3.20;;
11418;SDS011;32800;44.876;13.880;2023-03-05T06:02:39;4.03;;;3.33;;
11418;SDS011;32800;44.876;13.880;2023-03-05T06:05:06;4.07;;;3.27;;
11418;SDS011;32800;44.876;13.880;2023-03-05T06:07:33;3.47;;;3.17;;
11418;SDS011;32800;44.876;13.880;2023-03-05T06:09:59;3.60;;;3.13;;
11418;SDS011;32800;44.876;13.880;2023-03-05T06:12:24;3.67;;;3.00;;
11418;SDS011;32800;44.876;13.880;2023-03-05T06:14:50;5.20;;;3.10;;
11418;SDS011;32800;44.876;13.880;2023-03-05T06:17:15;4.93;;;3.33;;
11418;SDS011;32800;44.876;13.880;2023-03-05T06:19:42;3.97;;;3.57;;
11418;SDS011;32800;44.876;13.880;2023-03-05T06:22:08;3.73;;;3.00;;
11418;SDS011;32800;44.876;13.880;2023-03-05T06:24:33;4.17;;;3.63;;
11418;SDS011;32800;44.876;13.880;2023-03-05T06:26:59;3.50;;;3.20;;
11418;SDS011;32800;44.876;13.880;2023-03-05T06:29:24;3.53;;;3.00;;
11418;SDS011;32800;44.876;13.880;2023-03-05T06:31:50;3.80;;;3.23;;
11418;SDS011;32800;44.876;13.880;2023-03-05T06:34:15;3.73;;;3.30;;
11418;SDS011;32800;44.876;13.880;2023-03-05T06:36:41;3.80;;;3.40;;
11418;SDS011;32800;44.876;13.880;2023-03-05T06:39:08;4.10;;;3.40;;
11418;SDS011;32800;44.876;13.880;2023-03-05T06:41:33;3.63;;;3.33;;
11418;SDS011;32800;44.876;13.880;2023-03-05T06:43:59;3.80;;;3.23;;
11418;SDS011;32800;44.876;13.880;2023-03-05T06:46:30;3.47;;;3.17;;
11418;SDS011;32800;44.876;13.880;2023-03-05T06:48:58;3.57;;;3.07;;
11418;SDS011;32800;44.876;13.880;2023-03-05T06:51:25;3.83;;;3.47;;
11418;SDS011;32800;44.876;13.880;2023-03-05T06:53:53;4.17;;;3.37;;
11418;SDS011;32800;44.876;13.880;2023-03-05T06:56:20;3.67;;;2.70;;
11418;SDS011;32800;44.876;13.880;2023-03-05T06:58:47;3.47;;;3.17;;
11418;SDS011;32800;44.876;13.880;2023-03-05T07:01:14;3.30;;;3.00;;
11418;SDS011;32800;44.876;13.880;2023-03-05T07:03:40;6.20;;;3.50;;
11418;SDS011;32800;44.876;13.880;2023-03-05T07:06:07;3.93;;;3.27;;
11418;SDS011;32800;44.876;13.880;2023-03-05T07:08:34;3.50;;;3.20;;
11418;SDS011;32800;44.876;13.880;2023-03-05T07:11:00;4.10;;;3.03;;
11418;SDS011;32800;44.876;13.880;2023-03-05T07:13:26;5.37;;;3.27;;
11418;SDS011;32800;44.876;13.880;2023-03-05T07:15:52;3.63;;;3.13;;
11418;SDS011;32800;44.876;13.880;2023-03-05T07:18:17;3.33;;;3.00;;
11418;SDS011;32800;44.876;13.880;2023-03-05T07:20:43;3.53;;;3.00;;
11418;SDS011;32800;44.876;13.880;2023-03-05T07:23:08;3.63;;;3.20;;
11418;SDS011;32800;44.876;13.880;2023-03-05T07:25:34;3.63;;;3.17;;
11418;SDS011;32800;44.876;13.880;2023-03-05T07:28:00;3.27;;;2.97;;
11418;SDS011;32800;44.876;13.880;2023-03-05T07:30:27;3.97;;;2.97;;
11418;SDS011;32800;44.876;13.880;2023-03-05T07:32:53;4.00;;;3.13;;
11418;SDS011;32800;44.876;13.880;2023-03-05T07:35:18;4.00;;;3.43;;
11418;SDS011;32800;44.876;13.880;2023-03-05T07:37:44;3.50;;;3.10;;
11418;SDS011;32800;44.876;13.880;2023-03-05T07:40:09;3.27;;;2.90;;
11418;SDS011;32800;44.876;13.880;2023-03-05T07:42:35;3.43;;;3.07;;
11418;SDS011;32800;44.876;13.880;2023-03-05T07:45:01;3.17;;;2.87;;
11418;SDS011;32800;44.876;13.880;2023-03-05T07:47:26;3.10;;;2.80;;
11418;SDS011;32800;44.876;13.880;2023-03-05T07:49:52;3.50;;;3.10;;
11418;SDS011;32800;44.876;13.880;2023-03-05T07:52:18;3.60;;;3.23;;
11418;SDS011;32800;44.876;13.880;2023-03-05T07:54:44;3.30;;;3.00;;
11418;SDS011;32800;44.876;13.880;2023-03-05T07:57:10;5.37;;;3.20;;
11418;SDS011;32800;44.876;13.880;2023-03-05T07:59:37;3.30;;;3.00;;
11418;SDS011;32800;44.876;13.880;2023-03-05T08:02:03;3.70;;;3.20;;
11418;SDS011;32800;44.876;13.880;2023-03-05T08:04:29;3.60;;;3.30;;
11418;SDS011;32800;44.876;13.880;2023-03-05T08:06:56;3.80;;;2.83;;
11418;SDS011;32800;44.876;13.880;2023-03-05T08:09:24;3.77;;;3.27;;
11418;SDS011;32800;44.876;13.880;2023-03-05T08:11:50;3.57;;;2.73;;
11418;SDS011;32800;44.876;13.880;2023-03-05T08:14:15;3.17;;;2.87;;
11418;SDS011;32800;44.876;13.880;2023-03-05T08:16:42;3.30;;;3.00;;
11418;SDS011;32800;44.876;13.880;2023-03-05T08:19:08;3.37;;;2.90;;
11418;SDS011;32800;44.876;13.880;2023-03-05T08:21:35;3.40;;;2.90;;
11418;SDS011;32800;44.876;13.880;2023-03-05T08:24:04;3.70;;;2.73;;
11418;SDS011;32800;44.876;13.880;2023-03-05T08:26:31;3.40;;;3.10;;
11418;SDS011;32800;44.876;13.880;2023-03-05T08:28:58;3.17;;;2.70;;
11418;SDS011;32800;44.876;13.880;2023-03-05T08:31:24;3.87;;;3.03;;
11418;SDS011;32800;44.876;13.880;2023-03-05T08:33:52;3.40;;;2.97;;
11418;SDS011;32800;44.876;13.880;2023-03-05T08:36:18;3.10;;;2.80;;
11418;SDS011;32800;44.876;13.880;2023-03-05T08:38:44;3.63;;;2.90;;
11418;SDS011;32800;44.876;13.880;2023-03-05T08:41:11;2.83;;;2.60;;
11418;SDS011;32800;44.876;13.880;2023-03-05T08:43:37;3.23;;;2.90;;
11418;SDS011;32800;44.876;13.880;2023-03-05T08:46:02;3.13;;;2.63;;
11418;SDS011;32800;44.876;13.880;2023-03-05T08:48:28;2.63;;;2.43;;
11418;SDS011;32800;44.876;13.880;2023-03-05T08:50:55;3.67;;;3.13;;
11418;SDS011;32800;44.876;13.880;2023-03-05T08:53:21;3.30;;;2.80;;
11418;SDS011;32800;44.876;13.880;2023-03-05T08:55:54;2.90;;;2.67;;
11418;SDS011;32800;44.876;13.880;2023-03-05T08:58:20;3.40;;;2.63;;
11418;SDS011;32800;44.876;13.880;2023-03-05T09:00:45;4.07;;;2.93;;
11418;SDS011;32800;44.876;13.880;2023-03-05T09:03:11;3.63;;;2.93;;
11418;SDS011;32800;44.876;13.880;2023-03-05T09:05:37;4.00;;;3.00;;
11418;SDS011;32800;44.876;13.880;2023-03-05T09:08:02;3.30;;;2.87;;
11418;SDS011;32800;44.876;13.880;2023-03-05T09:10:28;3.33;;;2.83;;
11418;SDS011;32800;44.876;13.880;2023-03-05T09:12:53;3.20;;;2.90;;
11418;SDS011;32800;44.876;13.880;2023-03-05T09:15:19;3.30;;;3.00;;
11418;SDS011;32800;44.876;13.880;2023-03-05T09:17:44;2.97;;;2.67;;
11418;SDS011;32800;44.876;13.880;2023-03-05T09:20:11;3.10;;;2.80;;
11418;SDS011;32800;44.876;13.880;2023-03-05T09:22:37;3.77;;;3.17;;
11418;SDS011;32800;44.876;13.880;2023-03-05T09:25:03;2.97;;;2.67;;
11418;SDS011;32800;44.876;13.880;2023-03-05T09:27:32;3.10;;;2.63;;
11418;SDS011;32800;44.876;13.880;2023-03-05T09:29:58;3.40;;;3.00;;
11418;SDS011;32800;44.876;13.880;2023-03-05T09:32:23;3.80;;;2.80;;
11418;SDS011;32800;44.876;13.880;2023-03-05T09:34:49;3.27;;;2.97;;
11418;SDS011;32800;44.876;13.880;2023-03-05T09:37:14;3.10;;;2.77;;
11418;SDS011;32800;44.876;13.880;2023-03-05T09:39:40;3.80;;;2.97;;
11418;SDS011;32800;44.876;13.880;2023-03-05T09:56:02;2.77;;;2.57;;
11418;SDS011;32800;44.876;13.880;2023-03-05T09:58:34;2.83;;;2.63;;
11418;SDS011;32800;44.876;13.880;2023-03-05T10:03:52;3.20;;;2.90;;
11418;SDS011;32800;44.876;13.880;2023-03-05T10:14:13;3.00;;;2.70;;
11418;SDS011;32800;44.876;13.880;2023-03-05T10:16:47;3.07;;;2.77;;
11418;SDS011;32800;44.876;13.880;2023-03-05T10:22:01;3.23;;;2.93;;
11418;SDS011;32800;44.876;13.880;2023-03-05T10:24:54;4.10;;;2.70;;
11418;SDS011;32800;44.876;13.880;2023-03-05T10:27:58;2.93;;;2.63;;
11418;SDS011;32800;44.876;13.880;2023-03-05T10:33:04;3.07;;;2.77;;
11418;SDS011;32800;44.876;13.880;2023-03-05T10:40:55;4.33;;;2.97;;
11418;SDS011;32800;44.876;13.880;2023-03-05T10:43:35;3.30;;;2.60;;
11418;SDS011;32800;44.876;13.880;2023-03-05T10:46:02;2.97;;;2.77;;
11418;SDS011;32800;44.876;13.880;2023-03-05T10:51:14;3.90;;;2.80;;
11418;SDS011;32800;44.876;13.880;2023-03-05T10:53:52;2.60;;;2.40;;
11418;SDS011;32800;44.876;13.880;2023-03-05T10:56:21;2.80;;;2.60;;
11418;SDS011;32800;44.876;13.880;2023-03-05T10:58:49;2.70;;;2.50;;
11418;SDS011;32800;44.876;13.880;2023-03-05T11:03:52;3.30;;;2.97;;
11418;SDS011;32800;44.876;13.880;2023-03-05T11:06:32;2.70;;;2.47;;
11418;SDS011;32800;44.876;13.880;2023-03-05T11:09:21;3.60;;;2.50;;
11418;SDS011;32800;44.876;13.880;2023-03-05T11:12:12;3.30;;;2.80;;
11418;SDS011;32800;44.876;13.880;2023-03-05T11:14:42;3.07;;;2.77;;
11418;SDS011;32800;44.876;13.880;2023-03-05T11:19:54;3.80;;;3.40;;
11418;SDS011;32800;44.876;13.880;2023-03-05T11:22:22;3.57;;;3.27;;
11418;SDS011;32800;44.876;13.880;2023-03-05T11:27:59;5.57;;;4.67;;
11418;SDS011;32800;44.876;13.880;2023-03-05T11:30:26;7.10;;;5.00;;
11418;SDS011;32800;44.876;13.880;2023-03-05T11:35:43;7.80;;;5.50;;
11418;SDS011;32800;44.876;13.880;2023-03-05T11:38:16;9.13;;;5.53;;
11418;SDS011;32800;44.876;13.880;2023-03-05T11:40:44;7.70;;;5.33;;
11418;SDS011;32800;44.876;13.880;2023-03-05T11:43:15;6.03;;;5.27;;
11418;SDS011;32800;44.876;13.880;2023-03-05T11:45:42;6.30;;;5.53;;
11418;SDS011;32800;44.876;13.880;2023-03-05T11:48:14;7.93;;;5.50;;
11418;SDS011;32800;44.876;13.880;2023-03-05T11:50:43;9.13;;;6.17;;
11418;SDS011;32800;44.876;13.880;2023-03-05T11:53:24;8.00;;;6.27;;
11418;SDS011;32800;44.876;13.880;2023-03-05T11:55:55;8.40;;;6.10;;
11418;SDS011;32800;44.876;13.880;2023-03-05T12:01:20;7.87;;;5.93;;
11418;SDS011;32800;44.876;13.880;2023-03-05T12:03:50;8.17;;;5.83;;
11418;SDS011;32800;44.876;13.880;2023-03-05T12:06:17;9.73;;;6.23;;
11418;SDS011;32800;44.876;13.880;2023-03-05T12:08:56;11.73;;;7.20;;
11418;SDS011;32800;44.876;13.880;2023-03-05T12:11:24;10.20;;;6.93;;
11418;SDS011;32800;44.876;13.880;2023-03-05T12:13:56;10.03;;;7.23;;
11418;SDS011;32800;44.876;13.880;2023-03-05T12:19:40;12.90;;;7.70;;
11418;SDS011;32800;44.876;13.880;2023-03-05T12:22:36;12.87;;;7.93;;
11418;SDS011;32800;44.876;13.880;2023-03-05T12:27:47;19.50;;;10.67;;
11418;SDS011;32800;44.876;13.880;2023-03-05T12:33:11;18.40;;;10.20;;
11418;SDS011;32800;44.876;13.880;2023-03-05T12:38:44;23.97;;;11.57;;
11418;SDS011;32800;44.876;13.880;2023-03-05T12:51:51;18.93;;;11.33;;
11418;SDS011;32800;44.876;13.880;2023-03-05T12:57:00;21.00;;;10.40;;
11418;SDS011;32800;44.876;13.880;2023-03-05T12:59:31;16.83;;;10.27;;
11418;SDS011;32800;44.876;13.880;2023-03-05T13:02:03;16.13;;;9.43;;
11418;SDS011;32800;44.876;13.880;2023-03-05T13:04:40;14.80;;;10.27;;
11418;SDS011;32800;44.876;13.880;2023-03-05T13:07:16;16.30;;;10.30;;
11418;SDS011;32800;44.876;13.880;2023-03-05T13:09:50;15.83;;;9.93;;
11418;SDS011;32800;44.876;13.880;2023-03-05T13:12:20;14.87;;;9.60;;
11418;SDS011;32800;44.876;13.880;2023-03-05T13:14:46;13.57;;;8.77;;
11418;SDS011;32800;44.876;13.880;2023-03-05T13:20:03;17.23;;;9.40;;
11418;SDS011;32800;44.876;13.880;2023-03-05T13:22:47;12.67;;;8.60;;
11418;SDS011;32800;44.876;13.880;2023-03-05T13:25:14;11.43;;;7.77;;
11418;SDS011;32800;44.876;13.880;2023-03-05T13:27:44;10.40;;;7.40;;
11418;SDS011;32800;44.876;13.880;2023-03-05T13:30:28;9.53;;;7.83;;
11418;SDS011;32800;44.876;13.880;2023-03-05T13:32:56;11.93;;;6.93;;
11418;SDS011;32800;44.876;13.880;2023-03-05T13:35:26;12.47;;;7.77;;
11418;SDS011;32800;44.876;13.880;2023-03-05T13:37:52;13.47;;;7.43;;
11418;SDS011;32800;44.876;13.880;2023-03-05T13:40:22;8.90;;;6.77;;
11418;SDS011;32800;44.876;13.880;2023-03-05T13:43:07;10.93;;;6.77;;
11418;SDS011;32800;44.876;13.880;2023-03-05T13:45:34;10.13;;;6.57;;
11418;SDS011;32800;44.876;13.880;2023-03-05T13:48:04;15.00;;;6.43;;
11418;SDS011;32800;44.876;13.880;2023-03-05T13:50:35;13.00;;;7.50;;
11418;SDS011;32800;44.876;13.880;2023-03-05T13:55:48;11.60;;;6.13;;
11418;SDS011;32800;44.876;13.880;2023-03-05T13:58:48;8.50;;;5.80;;
11418;SDS011;32800;44.876;13.880;2023-03-05T14:01:27;11.07;;;6.57;;
11418;SDS011;32800;44.876;13.880;2023-03-05T14:06:31;9.23;;;6.20;;
11418;SDS011;32800;44.876;13.880;2023-03-05T14:09:21;10.63;;;5.90;;
11418;SDS011;32800;44.876;13.880;2023-03-05T14:11:54;9.87;;;5.97;;
11418;SDS011;32800;44.876;13.880;2023-03-05T14:14:31;7.67;;;5.90;;
11418;SDS011;32800;44.876;13.880;2023-03-05T14:19:49;11.13;;;6.63;;
11418;SDS011;32800;44.876;13.880;2023-03-05T14:25:00;10.90;;;6.37;;
11418;SDS011;32800;44.876;13.880;2023-03-05T14:27:27;8.83;;;5.83;;
11418;SDS011;32800;44.876;13.880;2023-03-05T14:29:56;9.63;;;6.13;;
11418;SDS011;32800;44.876;13.880;2023-03-05T14:32:32;10.20;;;5.80;;
11418;SDS011;32800;44.876;13.880;2023-03-05T14:35:00;8.43;;;6.00;;
11418;SDS011;32800;44.876;13.880;2023-03-05T14:40:02;12.47;;;6.17;;
11418;SDS011;32800;44.876;13.880;2023-03-05T14:42:32;10.37;;;6.03;;
11418;SDS011;32800;44.876;13.880;2023-03-05T14:45:04;10.17;;;6.27;;
11418;SDS011;32800;44.876;13.880;2023-03-05T14:47:34;10.10;;;5.60;;
11418;SDS011;32800;44.876;13.880;2023-03-05T14:49:59;9.17;;;5.97;;
11418;SDS011;32800;44.876;13.880;2023-03-05T14:52:25;10.73;;;6.53;;
11418;SDS011;32800;44.876;13.880;2023-03-05T14:54:50;10.73;;;6.30;;
11418;SDS011;32800;44.876;13.880;2023-03-05T14:57:20;12.23;;;6.47;;
11418;SDS011;32800;44.876;13.880;2023-03-05T14:59:47;10.43;;;6.60;;
11418;SDS011;32800;44.876;13.880;2023-03-05T15:02:17;10.70;;;6.30;;
11418;SDS011;32800;44.876;13.880;2023-03-05T15:04:47;11.40;;;7.20;;
11418;SDS011;32800;44.876;13.880;2023-03-05T15:07:31;11.60;;;7.27;;
11418;SDS011;32800;44.876;13.880;2023-03-05T15:09:57;13.77;;;7.80;;
11418;SDS011;32800;44.876;13.880;2023-03-05T15:12:23;18.57;;;8.40;;
11418;SDS011;32800;44.876;13.880;2023-03-05T15:14:50;16.23;;;8.37;;
11418;SDS011;32800;44.876;13.880;2023-03-05T15:17:21;16.57;;;8.90;;
11418;SDS011;32800;44.876;13.880;2023-03-05T15:19:48;20.70;;;9.33;;
11418;SDS011;32800;44.876;13.880;2023-03-05T15:22:14;18.47;;;9.77;;
11418;SDS011;32800;44.876;13.880;2023-03-05T15:24:40;21.13;;;10.27;;
11418;SDS011;32800;44.876;13.880;2023-03-05T15:27:06;18.10;;;9.77;;
11418;SDS011;32800;44.876;13.880;2023-03-05T15:29:32;20.10;;;9.73;;
11418;SDS011;32800;44.876;13.880;2023-03-05T15:31:58;21.90;;;10.70;;
11418;SDS011;32800;44.876;13.880;2023-03-05T15:34:25;19.77;;;10.47;;
11418;SDS011;32800;44.876;13.880;2023-03-05T15:36:51;22.13;;;10.80;;
11418;SDS011;32800;44.876;13.880;2023-03-05T15:39:16;18.27;;;10.13;;
11418;SDS011;32800;44.876;13.880;2023-03-05T15:41:42;22.07;;;10.93;;
11418;SDS011;32800;44.876;13.880;2023-03-05T15:44:07;23.40;;;10.60;;
11418;SDS011;32800;44.876;13.880;2023-03-05T15:46:33;19.93;;;10.10;;
11418;SDS011;32800;44.876;13.880;2023-03-05T15:48:59;20.37;;;10.40;;
11418;SDS011;32800;44.876;13.880;2023-03-05T15:51:25;23.70;;;10.70;;
11418;SDS011;32800;44.876;13.880;2023-03-05T15:53:50;24.87;;;10.70;;
11418;SDS011;32800;44.876;13.880;2023-03-05T15:56:17;20.83;;;10.40;;
11418;SDS011;32800;44.876;13.880;2023-03-05T15:58:43;22.57;;;10.57;;
11418;SDS011;32800;44.876;13.880;2023-03-05T16:01:10;24.93;;;10.67;;
11418;SDS011;32800;44.876;13.880;2023-03-05T16:03:36;20.03;;;10.90;;
11418;SDS011;32800;44.876;13.880;2023-03-05T16:06:02;20.07;;;10.33;;
11418;SDS011;32800;44.876;13.880;2023-03-05T16:08:29;18.83;;;9.73;;